Lexington, Alabama
Current Conditions -  °F | °C
As of 3:53 PM on Saturday 25 Oct 2014 (Local Time) from KMSL Reporting Station
Few Clouds Few Clouds  
Wind Chill: 79°   Ceiling: Unl
Heat Index: 80°   Visibility: 10mi
Dew Point: 60°   Wind: 12mph
Humidity: 52%   Direction: 270°W
Pressure: 30.03"   Gusts: NA
Location:  34.97°N, 87.37°W
Report Text: KMSL 252053Z AUTO 27010KT 10SM FEW040 26/16 A3003 RMK AO2 SLP167 T02610156 56017
Loading
Personal Weather Stations






























Interactive Weather Map
Tropical Storm Tracking
New forecast layout! Learn more

10-Day Weather Forecast

Advertisements
Track Severe Weather on mobile